Time;durP1;ratioP1;P1;durP2;ratioP2;P2;SDS_P1;SDS_P2;PMS_P1;PMS_P2;Temp;Humidity;BMP_temperature;BMP_pressure;BME280_temperature;BME280_humidity;BME280_pressure;Samples;Min_cycle;Max_cycle;Signal;HPM_P1;HPM_P2
2022/07/15 00:00:10;;;;;;;3.78;1.70;;;23.30;69.50;;;;;;5033124;28;20108;-64
2022/07/15 00:02:37;;;;;;;7.70;1.90;;;23.20;69.50;;;;;;5033690;28;20033;-64
2022/07/15 00:05:05;;;;;;;5.68;1.92;;;23.20;69.60;;;;;;5033258;28;20052;-63
2022/07/15 00:07:31;;;;;;;5.53;1.58;;;23.20;69.70;;;;;;5033367;28;20025;-66
2022/07/15 00:10:15;;;;;;;6.10;1.95;;;23.20;69.60;;;;;;5033496;28;20080;-64
2022/07/15 00:12:42;;;;;;;5.50;1.77;;;23.20;69.50;;;;;;5031979;28;20021;-64
2022/07/15 00:15:08;;;;;;;5.70;1.75;;;23.20;69.60;;;;;;5031487;28;20029;-64
2022/07/15 00:17:34;;;;;;;7.75;1.90;;;23.20;69.70;;;;;;5033335;28;20060;-64
2022/07/15 00:20:00;;;;;;;7.85;1.85;;;23.20;69.80;;;;;;5033533;28;20030;-63
2022/07/15 00:22:25;;;;;;;4.50;1.63;;;23.10;69.70;;;;;;5033280;28;20033;-63
2022/07/15 00:24:51;;;;;;;5.68;1.73;;;23.10;69.90;;;;;;5033202;28;20100;-64
2022/07/15 00:27:17;;;;;;;5.22;1.58;;;23.10;70.00;;;;;;5031840;28;20410;-63
2022/07/15 00:29:42;;;;;;;4.30;1.38;;;23.10;70.00;;;;;;5032898;28;20025;-63
2022/07/15 00:32:08;;;;;;;6.63;1.63;;;23.10;70.00;;;;;;5032676;28;20026;-64
2022/07/15 00:34:34;;;;;;;6.85;1.67;;;23.10;70.00;;;;;;5032986;28;20060;-64
2022/07/15 00:37:00;;;;;;;5.50;1.80;;;23.00;70.00;;;;;;5033076;28;20025;-64
2022/07/15 00:39:25;;;;;;;6.07;1.92;;;23.00;69.80;;;;;;5033086;28;20482;-64
2022/07/15 00:41:51;;;;;;;7.30;1.85;;;23.00;69.90;;;;;;5032934;28;20026;-64
2022/07/15 00:44:16;;;;;;;5.78;1.90;;;23.00;70.00;;;;;;5032706;28;20091;-64
2022/07/15 00:46:43;;;;;;;5.10;1.77;;;23.00;70.10;;;;;;5033226;28;20048;-63
2022/07/15 00:49:09;;;;;;;7.03;1.67;;;22.90;70.10;;;;;;5032979;28;20032;-64
2022/07/15 00:51:45;;;;;;;4.55;1.30;;;22.90;70.30;;;;;;5033202;28;20026;-64
2022/07/15 00:54:13;;;;;;;7.22;1.85;;;22.90;70.20;;;;;;5032828;28;20029;-64
2022/07/15 00:56:48;;;;;;;7.53;2.15;;;22.90;70.20;;;;;;5033080;28;20037;-65
2022/07/15 00:59:15;;;;;;;4.32;1.70;;;22.90;70.20;;;;;;5032746;28;20032;-64
2022/07/15 01:01:42;;;;;;;5.55;1.70;;;22.90;70.30;;;;;;5033058;28;20026;-64
2022/07/15 01:04:09;;;;;;;5.05;1.45;;;22.80;70.20;;;;;;5032556;28;20057;-64
2022/07/15 01:06:34;;;;;;;7.47;1.90;;;22.80;70.50;;;;;;5032571;28;20465;-66
2022/07/15 01:09:00;;;;;;;4.20;1.55;;;22.80;70.30;;;;;;5032762;28;20053;-64
2022/07/15 01:11:30;;;;;;;6.78;1.92;;;22.80;70.30;;;;;;5032698;28;20097;-64
2022/07/15 01:13:56;;;;;;;6.80;2.08;;;22.80;70.40;;;;;;5032667;28;20022;-64
2022/07/15 01:16:22;;;;;;;5.43;1.80;;;22.80;70.50;;;;;;5032846;28;20433;-64
2022/07/15 01:18:47;;;;;;;5.38;2.08;;;22.80;70.70;;;;;;5032671;28;20526;-64
2022/07/15 01:21:13;;;;;;;7.07;2.53;;;22.70;70.70;;;;;;5032560;28;20037;-64
2022/07/15 01:23:42;;;;;;;5.70;1.85;;;22.70;70.70;;;;;;5032719;28;20014;-63
2022/07/15 01:26:11;;;;;;;6.78;1.85;;;22.70;70.70;;;;;;5032533;28;20052;-66
2022/07/15 01:28:38;;;;;;;8.30;1.92;;;22.70;70.80;;;;;;5032566;28;20474;-63
2022/07/15 01:31:04;;;;;;;5.88;1.83;;;22.60;70.90;;;;;;5032629;28;20021;-65
2022/07/15 01:33:31;;;;;;;8.27;2.20;;;22.60;70.90;;;;;;5032751;28;20030;-66
2022/07/15 01:35:58;;;;;;;5.05;1.60;;;22.60;71.00;;;;;;5032191;28;20049;-64
2022/07/15 01:38:24;;;;;;;6.40;1.80;;;22.60;71.10;;;;;;5032884;28;20041;-66
2022/07/15 01:40:51;;;;;;;4.38;1.63;;;22.60;71.10;;;;;;5032348;28;20091;-66
2022/07/15 01:43:16;;;;;;;3.75;1.45;;;22.60;71.10;;;;;;5034525;28;20033;-66
2022/07/15 01:45:43;;;;;;;6.13;1.70;;;22.60;71.30;;;;;;5036155;28;20033;-66
2022/07/15 01:49:21;;;;;;;4.85;1.70;;;22.60;71.20;;;;;;5036050;28;20044;-66
2022/07/15 01:50:56;;;;;;;5.88;2.10;;;22.50;71.30;;;;;;5035751;28;20546;-65
2022/07/15 01:53:22;;;;;;;4.40;1.50;;;22.50;71.40;;;;;;5036154;28;20033;-66
2022/07/15 01:55:47;;;;;;;7.00;1.52;;;22.50;71.50;;;;;;5035581;28;20033;-66
2022/07/15 01:58:13;;;;;;;7.18;1.77;;;22.50;71.30;;;;;;5034598;28;20470;-64
2022/07/15 02:00:38;;;;;;;7.35;1.70;;;22.50;71.30;;;;;;5035726;28;20467;-66
2022/07/15 02:03:04;;;;;;;7.82;2.10;;;22.50;71.40;;;;;;5035830;28;20391;-64
2022/07/15 02:05:29;;;;;;;3.78;1.42;;;22.50;71.30;;;;;;5035523;28;20056;-65
2022/07/15 02:07:55;;;;;;;3.67;1.67;;;22.40;71.40;;;;;;5035753;28;20088;-66
2022/07/15 02:10:20;;;;;;;7.78;1.83;;;22.50;71.50;;;;;;5035169;28;20119;-66
2022/07/15 02:12:46;;;;;;;3.38;1.50;;;22.50;71.50;;;;;;5035844;28;20156;-64
2022/07/15 02:15:12;;;;;;;4.32;2.00;;;22.40;71.50;;;;;;5035381;28;20030;-65
2022/07/15 02:17:37;;;;;;;5.18;2.03;;;22.40;71.40;;;;;;5035582;28;20107;-65
2022/07/15 02:20:04;;;;;;;5.90;1.77;;;22.40;71.50;;;;;;5035336;28;20495;-65
2022/07/15 02:22:29;;;;;;;4.35;1.52;;;22.40;71.40;;;;;;5035599;28;20032;-64
2022/07/15 02:24:55;;;;;;;4.07;1.58;;;22.30;71.60;;;;;;5034933;28;20394;-66
2022/07/15 02:27:21;;;;;;;5.75;1.67;;;22.40;71.70;;;;;;5035432;28;20029;-64
2022/07/15 02:29:46;;;;;;;3.85;1.48;;;22.30;71.70;;;;;;5035309;28;20022;-65
2022/07/15 02:32:12;;;;;;;6.00;1.73;;;22.40;71.90;;;;;;5035114;28;20049;-64
2022/07/15 02:34:37;;;;;;;4.07;1.42;;;22.40;71.90;;;;;;5035099;28;20045;-63
2022/07/15 02:37:03;;;;;;;5.70;1.60;;;22.30;71.90;;;;;;5034987;28;20091;-64
2022/07/15 02:39:28;;;;;;;4.82;1.80;;;22.30;71.90;;;;;;5033680;28;20037;-65
2022/07/15 02:41:54;;;;;;;4.85;1.70;;;22.30;71.90;;;;;;5035056;28;20026;-64
2022/07/15 02:44:20;;;;;;;4.78;2.35;;;22.30;72.00;;;;;;5034893;28;20061;-64
2022/07/15 02:46:46;;;;;;;5.35;1.73;;;22.20;71.90;;;;;;5034950;28;20022;-66
2022/07/15 02:49:11;;;;;;;6.60;1.80;;;22.30;71.90;;;;;;5034931;28;20025;-65
2022/07/15 02:51:37;;;;;;;4.55;1.63;;;22.20;71.70;;;;;;5034783;28;20383;-64
2022/07/15 02:54:02;;;;;;;6.90;2.20;;;22.20;72.50;;;;;;5034531;28;20028;-64
2022/07/15 02:56:28;;;;;;;4.95;1.85;;;22.20;72.00;;;;;;5034944;28;20376;-64
2022/07/15 02:58:53;;;;;;;6.88;2.15;;;22.20;72.10;;;;;;5034730;28;20368;-63
2022/07/15 03:01:19;;;;;;;5.18;2.05;;;22.20;72.00;;;;;;5034736;28;20549;-63
2022/07/15 03:03:45;;;;;;;7.95;1.92;;;22.20;72.10;;;;;;5034564;28;20025;-64
2022/07/15 03:06:11;;;;;;;7.13;2.40;;;22.20;72.10;;;;;;5034865;28;20033;-64
2022/07/15 03:08:36;;;;;;;6.18;2.00;;;22.10;72.00;;;;;;5034554;28;20029;-63
2022/07/15 03:11:02;;;;;;;5.35;1.70;;;22.10;72.10;;;;;;5034325;28;20463;-64
2022/07/15 03:13:29;;;;;;;5.47;1.77;;;22.10;72.20;;;;;;5034480;28;20057;-65
2022/07/15 03:15:54;;;;;;;6.15;2.30;;;22.10;72.20;;;;;;5034080;28;20083;-63
2022/07/15 03:18:20;;;;;;;6.03;2.45;;;22.10;72.30;;;;;;5034211;28;20026;-64
2022/07/15 03:20:46;;;;;;;6.32;2.28;;;22.10;72.30;;;;;;5034247;28;20026;-64
2022/07/15 03:23:12;;;;;;;6.47;2.17;;;22.10;72.20;;;;;;5034082;28;20538;-64
2022/07/15 03:25:38;;;;;;;6.68;2.35;;;22.00;72.20;;;;;;5034192;28;20158;-64
2022/07/15 03:28:04;;;;;;;6.15;2.30;;;22.00;72.40;;;;;;5033983;28;20070;-64
2022/07/15 03:30:29;;;;;;;6.13;2.13;;;21.90;72.40;;;;;;5034240;28;20400;-63
2022/07/15 03:32:55;;;;;;;6.07;2.30;;;22.00;72.50;;;;;;5034003;28;20017;-63
2022/07/15 03:35:21;;;;;;;6.38;2.47;;;21.90;72.40;;;;;;5033782;28;20033;-65
2022/07/15 03:37:46;;;;;;;6.93;1.90;;;21.90;72.50;;;;;;5033735;28;20053;-63
2022/07/15 03:40:12;;;;;;;6.22;1.83;;;21.90;72.50;;;;;;5033833;28;20463;-63
2022/07/15 03:42:38;;;;;;;5.20;2.17;;;21.90;72.50;;;;;;5033996;28;20053;-64
2022/07/15 03:45:04;;;;;;;6.15;2.10;;;21.90;72.60;;;;;;5033825;28;20096;-65
2022/07/15 03:47:30;;;;;;;8.75;2.55;;;21.90;72.60;;;;;;5033839;28;20033;-64
2022/07/15 03:49:55;;;;;;;4.70;2.20;;;21.80;72.60;;;;;;5033636;28;20021;-64
2022/07/15 03:52:21;;;;;;;5.82;1.77;;;21.90;72.80;;;;;;5033491;28;20572;-63
2022/07/15 03:54:46;;;;;;;5.93;1.77;;;21.80;72.70;;;;;;5033767;28;20024;-63
2022/07/15 03:57:12;;;;;;;5.45;1.85;;;21.80;72.80;;;;;;5033444;28;20029;-64
2022/07/15 03:59:37;;;;;;;4.80;2.13;;;21.80;72.80;;;;;;5033689;28;20021;-65
2022/07/15 04:02:03;;;;;;;6.85;1.70;;;21.80;72.80;;;;;;5033419;28;20474;-64
2022/07/15 04:04:28;;;;;;;8.63;2.95;;;21.80;72.90;;;;;;5033609;28;20075;-63
2022/07/15 04:06:54;;;;;;;5.70;1.83;;;21.80;73.00;;;;;;5032678;28;20387;-63
2022/07/15 04:09:20;;;;;;;3.80;1.70;;;21.80;73.10;;;;;;5033493;28;20068;-65
2022/07/15 04:11:45;;;;;;;4.10;1.95;;;21.70;73.20;;;;;;5033287;28;20021;-64
2022/07/15 04:14:13;;;;;;;5.65;2.13;;;21.70;73.30;;;;;;5033336;28;20398;-63
2022/07/15 04:16:38;;;;;;;8.45;2.35;;;21.80;73.40;;;;;;5033249;28;20116;-64
2022/07/15 04:19:04;;;;;;;8.52;2.97;;;21.70;73.40;;;;;;5033320;28;20079;-64
2022/07/15 04:21:30;;;;;;;6.68;2.17;;;21.70;73.40;;;;;;5033000;28;20036;-63
2022/07/15 04:23:56;;;;;;;5.53;1.90;;;21.70;73.40;;;;;;5033286;28;20017;-64
2022/07/15 04:26:22;;;;;;;5.13;2.03;;;21.80;73.40;;;;;;5033334;28;20029;-63
2022/07/15 04:28:47;;;;;;;7.88;1.70;;;21.80;73.60;;;;;;5033104;28;20018;-63
2022/07/15 04:31:13;;;;;;;7.45;2.28;;;21.80;73.60;;;;;;5033068;28;20030;-63
2022/07/15 04:33:39;;;;;;;8.15;2.47;;;21.80;73.50;;;;;;5033187;28;20068;-63
2022/07/15 04:36:04;;;;;;;4.60;1.83;;;21.80;73.60;;;;;;5032617;28;20084;-65
2022/07/15 04:38:30;;;;;;;6.82;2.35;;;21.70;73.70;;;;;;5033037;28;20029;-64
2022/07/15 04:40:55;;;;;;;7.50;2.13;;;21.70;73.80;;;;;;5033134;28;20025;-64
2022/07/15 04:43:21;;;;;;;8.43;2.10;;;21.70;73.90;;;;;;5032872;28;20021;-64
2022/07/15 04:45:47;;;;;;;4.82;1.88;;;21.70;74.00;;;;;;5032971;28;20029;-64
2022/07/15 04:50:57;;;;;;;4.25;2.00;;;21.70;74.10;;;;;;5032940;28;20116;-63
2022/07/15 04:53:23;;;;;;;4.53;1.92;;;21.80;74.10;;;;;;5032916;28;20049;-64
2022/07/15 04:55:48;;;;;;;5.72;2.22;;;21.80;74.10;;;;;;5032881;28;20550;-63
2022/07/15 04:58:15;;;;;;;7.05;2.22;;;21.80;74.10;;;;;;5032760;28;20109;-65
2022/07/15 05:00:44;;;;;;;11.60;2.53;;;21.70;74.10;;;;;;5033157;28;20024;-63
2022/07/15 05:03:10;;;;;;;6.57;2.10;;;21.70;74.20;;;;;;5037971;28;20445;-64
2022/07/15 05:05:36;;;;;;;9.07;2.28;;;21.70;74.10;;;;;;5054004;28;20478;-66
2022/07/15 05:08:03;;;;;;;6.00;2.00;;;21.70;74.30;;;;;;5049526;28;20022;-66
2022/07/15 05:10:28;;;;;;;5.22;1.83;;;21.70;74.30;;;;;;5032762;28;20029;-63
2022/07/15 05:12:54;;;;;;;4.78;1.98;;;21.70;74.40;;;;;;5070706;28;20093;-63
2022/07/15 05:15:19;;;;;;;4.20;1.75;;;21.70;74.40;;;;;;5072029;28;20036;-64
2022/07/15 05:17:45;;;;;;;5.90;2.10;;;21.70;74.50;;;;;;5073728;28;20028;-64
2022/07/15 05:20:11;;;;;;;5.32;2.13;;;21.70;74.60;;;;;;5068305;28;20478;-64
2022/07/15 05:22:37;;;;;;;6.45;2.42;;;21.80;74.80;;;;;;5047637;28;20034;-64
2022/07/15 05:25:02;;;;;;;7.45;2.50;;;21.70;74.60;;;;;;5036438;28;20467;-64
2022/07/15 05:27:28;;;;;;;7.78;2.35;;;21.70;74.60;;;;;;5048199;28;20485;-64
2022/07/15 05:29:54;;;;;;;6.90;2.00;;;21.70;74.70;;;;;;5036253;28;20029;-64
2022/07/15 05:32:19;;;;;;;3.60;1.60;;;21.80;74.80;;;;;;5043681;28;20087;-64
2022/07/15 05:34:45;;;;;;;4.63;1.63;;;21.80;74.70;;;;;;5055637;28;20041;-64
2022/07/15 05:37:11;;;;;;;5.10;1.83;;;21.80;74.80;;;;;;5055180;28;20086;-64
2022/07/15 05:39:53;;;;;;;5.57;1.92;;;21.80;74.70;;;;;;5051617;28;20074;-64
2022/07/15 05:42:21;;;;;;;7.93;1.80;;;21.80;74.90;;;;;;5056069;28;20524;-63
2022/07/15 05:44:47;;;;;;;6.82;1.73;;;21.80;74.90;;;;;;5056154;28;20021;-63
2022/07/15 05:47:13;;;;;;;7.10;1.70;;;21.80;75.30;;;;;;5055498;28;20413;-65
2022/07/15 05:49:39;;;;;;;4.53;1.35;;;21.70;75.30;;;;;;5055826;28;20063;-65
2022/07/15 05:52:05;;;;;;;5.82;1.55;;;21.80;75.40;;;;;;5054667;28;20021;-64
2022/07/15 05:54:30;;;;;;;4.13;1.25;;;21.80;75.60;;;;;;5055672;28;20706;-63
2022/07/15 05:56:56;;;;;;;6.10;1.50;;;21.90;75.20;;;;;;5055945;28;20531;-63
2022/07/15 05:59:21;;;;;;;6.72;1.88;;;22.00;74.60;;;;;;5055816;28;20389;-64
2022/07/15 06:01:47;;;;;;;4.05;1.33;;;22.10;74.10;;;;;;5055575;28;20063;-64
2022/07/15 06:04:13;;;;;;;4.00;1.25;;;22.10;73.40;;;;;;5055443;28;20025;-64
2022/07/15 06:06:39;;;;;;;4.15;1.17;;;22.20;73.80;;;;;;5055544;28;20033;-64
2022/07/15 06:09:05;;;;;;;3.47;1.20;;;22.10;73.50;;;;;;5055734;28;20032;-64
2022/07/15 06:11:30;;;;;;;2.85;0.93;;;22.20;73.50;;;;;;5055428;28;20021;-64
2022/07/15 06:13:56;;;;;;;5.85;1.02;;;22.20;73.10;;;;;;5039901;28;20026;-64
2022/07/15 06:16:22;;;;;;;3.92;1.00;;;22.30;73.20;;;;;;5043304;28;20044;-64
2022/07/15 06:18:48;;;;;;;6.05;1.50;;;22.20;73.30;;;;;;5057238;28;20029;-64
2022/07/15 06:21:14;;;;;;;4.85;1.20;;;22.30;73.30;;;;;;5061537;28;20025;-63
2022/07/15 06:23:39;;;;;;;2.72;0.88;;;22.30;73.00;;;;;;5059156;28;20111;-64
2022/07/15 06:26:05;;;;;;;3.92;0.95;;;22.30;73.30;;;;;;5053162;28;20160;-64
2022/07/15 06:28:31;;;;;;;4.20;0.60;;;22.30;73.10;;;;;;5054215;28;20021;-64
2022/07/15 06:30:56;;;;;;;3.40;0.90;;;22.40;72.80;;;;;;5053836;28;20537;-64
2022/07/15 06:33:24;;;;;;;3.60;1.05;;;22.40;72.40;;;;;;5046011;28;20030;-64
2022/07/15 06:35:49;;;;;;;5.57;1.30;;;22.50;72.20;;;;;;5061551;28;20445;-64
2022/07/15 06:38:15;;;;;;;4.53;1.00;;;22.60;71.70;;;;;;5057602;28;20471;-65
2022/07/15 06:40:41;;;;;;;5.43;1.00;;;22.70;71.60;;;;;;5060368;28;20052;-64
2022/07/15 06:43:07;;;;;;;7.15;1.15;;;22.70;72.70;;;;;;5059319;28;20318;-63
2022/07/15 06:45:32;;;;;;;7.10;1.25;;;22.70;72.90;;;;;;5057877;28;20450;-63
2022/07/15 06:47:59;;;;;;;3.97;1.05;;;22.80;70.60;;;;;;5051474;28;20024;-63
2022/07/15 06:50:24;;;;;;;3.83;1.05;;;22.90;70.80;;;;;;5064832;28;20039;-63
2022/07/15 06:52:50;;;;;;;3.85;0.65;;;22.90;71.30;;;;;;5046023;28;20027;-63
2022/07/15 06:55:15;;;;;;;6.93;0.98;;;23.00;70.40;;;;;;5043036;28;20025;-64
2022/07/15 06:57:41;;;;;;;5.43;1.10;;;23.10;69.80;;;;;;5048831;28;20473;-63
2022/07/15 07:00:09;;;;;;;7.35;1.40;;;23.10;70.10;;;;;;5042527;28;20072;-62
2022/07/15 07:02:34;;;;;;;5.70;1.27;;;23.20;69.70;;;;;;5037509;28;20408;-63
2022/07/15 07:05:00;;;;;;;3.50;0.88;;;23.20;70.10;;;;;;5039374;28;20033;-63
2022/07/15 07:07:26;;;;;;;5.35;1.27;;;23.30;70.00;;;;;;5045749;28;20024;-65
2022/07/15 07:09:51;;;;;;;6.65;1.30;;;23.30;69.50;;;;;;5039683;28;20047;-63
2022/07/15 07:12:17;;;;;;;4.22;0.88;;;23.30;69.70;;;;;;5053573;28;20048;-63
2022/07/15 07:14:43;;;;;;;4.63;0.80;;;23.40;69.40;;;;;;5046368;28;20032;-63
2022/07/15 07:17:08;;;;;;;6.13;0.98;;;23.40;69.30;;;;;;5040736;28;20047;-64
2022/07/15 07:19:34;;;;;;;7.45;1.27;;;23.50;68.80;;;;;;5048842;28;20414;-64
2022/07/15 07:22:00;;;;;;;4.82;0.82;;;23.60;68.40;;;;;;5035772;28;20117;-63
2022/07/15 07:24:25;;;;;;;3.80;0.70;;;23.60;68.80;;;;;;5037348;28;20045;-63
2022/07/15 07:26:51;;;;;;;3.97;0.70;;;23.70;68.10;;;;;;5027669;28;20036;-63
2022/07/15 07:29:22;;;;;;;6.82;0.75;;;23.70;68.00;;;;;;5029700;28;20029;-63
2022/07/15 07:31:51;;;;;;;6.72;0.98;;;23.70;68.10;;;;;;5023761;28;20113;-63
2022/07/15 07:34:17;;;;;;;4.90;0.65;;;23.70;68.00;;;;;;5031973;28;20033;-63
2022/07/15 07:36:44;;;;;;;5.32;0.70;;;23.70;67.30;;;;;;5036787;28;20036;-63
2022/07/15 07:39:10;;;;;;;3.58;0.63;;;23.80;67.00;;;;;;5036320;28;20035;-63
2022/07/15 07:41:36;;;;;;;2.63;0.60;;;23.90;66.70;;;;;;5032187;28;20510;-62
2022/07/15 07:44:01;;;;;;;3.72;0.70;;;24.10;64.50;;;;;;5031895;28;20486;-63
2022/07/15 07:46:27;;;;;;;2.90;0.77;;;24.00;65.50;;;;;;5032198;28;20040;-62
2022/07/15 07:48:53;;;;;;;4.07;0.60;;;24.00;65.80;;;;;;5032795;28;20383;-63
2022/07/15 07:51:18;;;;;;;5.68;0.60;;;24.00;65.80;;;;;;5034267;28;20463;-62
2022/07/15 07:53:46;;;;;;;2.30;0.43;;;24.00;65.80;;;;;;5033730;28;20095;-63
2022/07/15 07:56:12;;;;;;;4.10;0.73;;;24.10;65.10;;;;;;5031341;28;20033;-63
2022/07/15 07:58:38;;;;;;;4.65;1.05;;;24.30;64.50;;;;;;5030796;28;20022;-62
2022/07/15 08:01:03;;;;;;;2.40;0.50;;;24.40;63.10;;;;;;5037479;28;20026;-62
2022/07/15 08:03:29;;;;;;;3.83;0.60;;;24.30;64.80;;;;;;5035506;28;20060;-62
2022/07/15 08:05:55;;;;;;;3.28;0.65;;;24.40;64.10;;;;;;5036676;28;20032;-62
2022/07/15 08:08:22;;;;;;;4.18;0.40;;;24.30;64.70;;;;;;5031164;28;20033;-63
2022/07/15 08:10:51;;;;;;;5.32;0.47;;;24.30;65.20;;;;;;5040948;28;20028;-63
2022/07/15 08:13:18;;;;;;;6.05;1.00;;;24.30;64.80;;;;;;5037971;28;20025;-65
2022/07/15 08:15:45;;;;;;;4.88;0.70;;;24.40;65.00;;;;;;5038405;28;20044;-64
2022/07/15 08:18:11;;;;;;;3.30;0.52;;;24.40;65.30;;;;;;5040836;28;20025;-63
2022/07/15 08:20:37;;;;;;;4.32;0.73;;;24.30;64.80;;;;;;5039721;28;20033;-65
2022/07/15 08:23:04;;;;;;;3.13;0.45;;;24.40;64.50;;;;;;5035392;28;20467;-68
2022/07/15 08:25:32;;;;;;;4.75;0.75;;;24.60;63.10;;;;;;5038741;28;20079;-70
2022/07/15 08:27:59;;;;;;;2.42;0.38;;;24.70;62.50;;;;;;5038091;28;20044;-67
2022/07/15 08:30:26;;;;;;;3.33;0.70;;;24.60;62.70;;;;;;5046694;28;20131;-64
2022/07/15 08:32:52;;;;;;;3.30;0.50;;;24.70;60.70;;;;;;5040296;28;20213;-65
2022/07/15 08:35:18;;;;;;;5.32;0.40;;;24.80;60.90;;;;;;5035362;28;20542;-63
2022/07/15 08:37:43;;;;;;;2.42;0.30;;;24.80;60.20;;;;;;5045592;28;20032;-73
2022/07/15 08:40:11;;;;;;;5.88;0.63;;;24.90;59.50;;;;;;5036978;28;20534;-62
2022/07/15 08:42:43;;;;;;;5.07;0.80;;;24.90;60.30;;;;;;5043801;28;20053;-62
2022/07/15 08:45:09;;;;;;;3.90;0.65;;;24.90;60.30;;;;;;5051249;28;20529;-63
2022/07/15 08:47:37;;;;;;;4.00;0.45;;;25.00;59.90;;;;;;5051735;28;20109;-63
2022/07/15 08:50:04;;;;;;;3.80;0.40;;;25.20;59.00;;;;;;5048912;28;20018;-62
2022/07/15 08:52:33;;;;;;;7.40;0.82;;;25.30;57.90;;;;;;5050374;28;20038;-62
2022/07/15 08:54:59;;;;;;;3.33;0.60;;;25.40;57.80;;;;;;5039991;28;20029;-62
2022/07/15 08:57:25;;;;;;;3.42;0.50;;;25.30;57.90;;;;;;5049943;28;20038;-63
2022/07/15 08:59:54;;;;;;;3.72;0.68;;;25.40;58.10;;;;;;5050590;28;20017;-63
2022/07/15 09:02:19;;;;;;;5.03;0.43;;;25.30;58.70;;;;;;5043010;28;20033;-62
2022/07/15 09:05:23;;;;;;;4.35;0.70;;;25.30;59.00;;;;;;5039394;28;20040;-63
2022/07/15 09:08:10;;;;;;;2.83;0.28;;;25.30;58.30;;;;;;5038802;28;20037;-64
2022/07/15 09:10:49;;;;;;;5.15;0.60;;;25.20;58.40;;;;;;5050170;28;20035;-64
2022/07/15 09:13:32;;;;;;;3.25;0.38;;;25.10;59.60;;;;;;5053634;28;20056;-63
2022/07/15 09:16:00;;;;;;;2.05;0.40;;;24.90;59.80;;;;;;5044113;28;20029;-63
2022/07/15 09:18:29;;;;;;;1.38;0.32;;;24.90;60.20;;;;;;5059750;28;20033;-65
2022/07/15 09:20:55;;;;;;;6.78;0.63;;;25.10;59.20;;;;;;5058128;28;20020;-65
2022/07/15 09:23:29;;;;;;;1.45;0.25;;;25.10;59.00;;;;;;5049880;28;20033;-65
2022/07/15 09:25:58;;;;;;;6.15;0.50;;;25.10;59.80;;;;;;5056870;28;20021;-64
2022/07/15 09:28:36;;;;;;;1.48;0.20;;;25.20;57.20;;;;;;5056719;28;20017;-63
2022/07/15 09:33:57;;;;;;;1.88;0.40;;;25.40;55.00;;;;;;5053523;28;20405;-65
2022/07/15 09:36:26;;;;;;;4.45;0.93;;;25.40;56.50;;;;;;5058530;28;20741;-65
2022/07/15 09:39:05;;;;;;;7.40;0.85;;;25.20;59.70;;;;;;5057985;28;20393;-64
2022/07/15 09:41:42;;;;;;;8.55;1.02;;;25.20;60.80;;;;;;5052046;28;20121;-65
2022/07/15 09:44:15;;;;;;;4.65;0.70;;;25.10;61.50;;;;;;5056436;28;20025;-65
2022/07/15 09:46:59;;;;;;;3.65;0.90;;;25.10;61.80;;;;;;5060935;28;20025;-64
2022/07/15 09:49:24;;;;;;;5.88;1.10;;;25.10;62.10;;;;;;5055070;28;20503;-65
2022/07/15 09:51:55;;;;;;;5.85;0.88;;;25.00;62.30;;;;;;5052670;28;20059;-64
2022/07/15 09:54:25;;;;;;;1.95;0.40;;;25.00;62.10;;;;;;5039701;28;20390;-65
2022/07/15 09:56:52;;;;;;;5.68;0.80;;;25.20;59.40;;;;;;5049358;28;20103;-66
2022/07/15 09:59:18;;;;;;;7.32;1.08;;;25.10;61.10;;;;;;5062021;28;20028;-66
2022/07/15 10:01:47;;;;;;;5.57;1.17;;;25.10;61.20;;;;;;5044500;28;20020;-66
2022/07/15 10:04:15;;;;;;;8.20;1.35;;;25.10;61.90;;;;;;5047695;28;20024;-66
2022/07/15 10:06:43;;;;;;;5.00;0.90;;;25.00;62.50;;;;;;5054727;28;20017;-66
2022/07/15 10:09:09;;;;;;;5.50;0.90;;;25.10;60.70;;;;;;5050528;28;20035;-66
2022/07/15 10:11:40;;;;;;;5.78;1.08;;;25.20;60.10;;;;;;5058037;28;20028;-66
2022/07/15 10:14:34;;;;;;;7.72;1.23;;;25.10;61.50;;;;;;5045285;28;20037;-66
2022/07/15 10:17:03;;;;;;;3.00;0.50;;;25.10;61.70;;;;;;5041227;28;20056;-66
2022/07/15 10:19:53;;;;;;;6.45;1.10;;;25.20;58.10;;;;;;5036432;28;20529;-66
2022/07/15 10:22:36;;;;;;;3.60;0.70;;;25.20;60.20;;;;;;5043416;28;20463;-66
2022/07/15 10:25:33;;;;;;;6.18;0.60;;;25.10;60.60;;;;;;5034573;28;20094;-66
2022/07/15 10:28:15;;;;;;;3.72;0.70;;;25.10;61.50;;;;;;5047328;28;20028;-66
2022/07/15 10:30:42;;;;;;;4.78;1.00;;;25.20;59.20;;;;;;5034328;28;20021;-66
2022/07/15 10:33:19;;;;;;;8.25;0.90;;;25.30;60.70;;;;;;5034367;28;20021;-65
2022/07/15 10:35:48;;;;;;;2.38;0.50;;;25.10;61.30;;;;;;5060515;28;20318;-65
2022/07/15 10:38:35;;;;;;;4.72;0.77;;;25.20;59.20;;;;;;5057273;28;20074;-65
2022/07/15 10:41:04;;;;;;;4.28;0.98;;;25.20;60.90;;;;;;5059856;28;20024;-65
2022/07/15 10:43:49;;;;;;;5.53;0.70;;;25.20;61.30;;;;;;5060219;28;20298;-65
2022/07/15 10:46:18;;;;;;;7.65;0.73;;;25.20;60.60;;;;;;5041659;28;20021;-65
2022/07/15 10:48:44;;;;;;;2.30;0.57;;;25.20;59.90;;;;;;5035686;28;20014;-65
2022/07/15 10:51:11;;;;;;;3.85;0.77;;;25.40;59.00;;;;;;5033044;28;20029;-65
2022/07/15 10:53:45;;;;;;;3.75;0.60;;;25.30;60.00;;;;;;5040848;28;20033;-65
2022/07/15 10:56:34;;;;;;;4.10;0.77;;;25.30;58.80;;;;;;5033721;28;20029;-65
2022/07/15 10:59:10;;;;;;;3.55;0.77;;;25.30;60.20;;;;;;5039705;28;20147;-65
2022/07/15 11:01:36;;;;;;;2.83;0.77;;;25.20;60.60;;;;;;5034888;28;20108;-65
2022/07/15 11:04:18;;;;;;;2.25;0.40;;;25.30;60.00;;;;;;5033551;28;20108;-65
2022/07/15 11:07:02;;;;;;;2.25;0.70;;;25.20;60.20;;;;;;5038277;28;20080;-65
2022/07/15 11:09:56;;;;;;;1.85;0.38;;;25.30;59.60;;;;;;5049491;28;20033;-65
2022/07/15 11:12:28;;;;;;;2.35;0.52;;;25.30;60.60;;;;;;5038733;28;21945;-65
2022/07/15 11:14:53;;;;;;;2.65;0.52;;;25.30;58.80;;;;;;5036122;28;20025;-65
2022/07/15 11:17:27;;;;;;;1.88;0.50;;;25.40;57.60;;;;;;5041849;28;20029;-65
2022/07/15 11:19:56;;;;;;;4.10;0.75;;;25.40;57.70;;;;;;5043684;28;20033;-66
2022/07/15 11:22:28;;;;;;;2.65;0.50;;;25.30;60.50;;;;;;5043909;28;20498;-65
2022/07/15 11:24:54;;;;;;;1.65;0.63;;;25.30;58.90;;;;;;5042779;28;20377;-65
2022/07/15 11:27:22;;;;;;;3.67;0.65;;;25.40;59.20;;;;;;5050498;28;20044;-66
2022/07/15 11:29:58;;;;;;;4.25;0.80;;;25.40;60.40;;;;;;5040538;28;20021;-66
2022/07/15 11:32:25;;;;;;;3.30;0.85;;;25.40;58.10;;;;;;5037789;28;20035;-66
2022/07/15 11:34:53;;;;;;;3.67;0.80;;;25.50;58.50;;;;;;5034189;28;20038;-66
2022/07/15 11:37:28;;;;;;;3.08;0.63;;;25.40;60.30;;;;;;5039106;28;20048;-66
2022/07/15 11:45:46;;;;;;;7.55;1.05;;;25.40;59.80;;;;;;5055034;28;20457;-65
2022/07/15 11:48:13;;;;;;;4.10;0.70;;;25.40;58.70;;;;;;5060708;28;20470;-65
2022/07/15 11:50:49;;;;;;;1.90;0.65;;;25.50;57.90;;;;;;5051130;28;20040;-65
2022/07/15 11:53:15;;;;;;;2.67;0.90;;;25.50;54.50;;;;;;5050895;28;20033;-66
2022/07/15 11:56:08;;;;;;;6.70;1.00;;;25.40;53.80;;;;;;5033705;28;20386;-65
2022/07/15 11:58:42;;;;;;;3.05;0.80;;;25.50;54.70;;;;;;5036386;28;20041;-65
2022/07/15 12:01:13;;;;;;;3.17;0.52;;;25.50;56.20;;;;;;5041243;28;20025;-65
2022/07/15 12:03:43;;;;;;;4.18;0.75;;;25.50;57.30;;;;;;5039583;28;20021;-65
2022/07/15 12:06:12;;;;;;;2.05;0.60;;;25.50;58.20;;;;;;5027732;28;20124;-66
2022/07/15 12:08:40;;;;;;;6.93;1.13;;;25.50;58.20;;;;;;5046115;28;20162;-66
2022/07/15 12:11:12;;;;;;;4.35;1.05;;;25.50;58.10;;;;;;5051264;28;20020;-66
2022/07/15 12:13:44;;;;;;;2.63;0.80;;;25.50;58.60;;;;;;5046108;28;20021;-65
2022/07/15 12:16:10;;;;;;;2.58;0.47;;;25.50;58.40;;;;;;5038616;28;20479;-65
2022/07/15 12:18:35;;;;;;;3.50;0.80;;;25.50;59.60;;;;;;5040217;28;20029;-65
2022/07/15 12:21:01;;;;;;;3.15;0.60;;;25.50;59.30;;;;;;5043632;28;20017;-66
2022/07/15 12:23:28;;;;;;;2.17;0.70;;;25.50;59.60;;;;;;5036324;28;20029;-65
2022/07/15 12:26:08;;;;;;;2.55;0.73;;;25.40;59.40;;;;;;5038164;28;20091;-65
2022/07/15 12:28:35;;;;;;;1.88;0.50;;;25.40;59.70;;;;;;5045077;28;20027;-65
2022/07/15 12:31:01;;;;;;;2.05;0.68;;;25.50;58.30;;;;;;5040581;28;20046;-65
2022/07/15 12:33:27;;;;;;;4.30;0.70;;;25.50;58.00;;;;;;5038266;28;20029;-65
2022/07/15 12:36:14;;;;;;;2.10;0.60;;;25.40;59.00;;;;;;5035245;28;20042;-65
2022/07/15 12:38:41;;;;;;;2.97;0.52;;;25.50;58.50;;;;;;5039586;28;20499;-65
2022/07/15 12:41:24;;;;;;;4.70;0.70;;;25.60;57.60;;;;;;5050042;28;20112;-65
2022/07/15 12:43:56;;;;;;;3.42;0.77;;;25.60;58.30;;;;;;5043189;28;20528;-65
2022/07/15 12:46:50;;;;;;;2.28;0.52;;;25.60;58.00;;;;;;5045456;28;20112;-65
2022/07/15 12:49:38;;;;;;;1.65;0.60;;;25.70;57.80;;;;;;5048470;28;20053;-66
2022/07/15 12:52:16;;;;;;;2.75;0.68;;;25.70;58.00;;;;;;5037751;28;21464;-65
2022/07/15 12:54:42;;;;;;;3.70;0.85;;;25.70;57.40;;;;;;5038865;28;20021;-66
2022/07/15 12:57:30;;;;;;;2.95;0.70;;;25.70;56.80;;;;;;5036715;28;20494;-66
2022/07/15 13:00:04;;;;;;;2.72;0.70;;;25.80;56.30;;;;;;5038896;28;20485;-66
2022/07/15 13:02:31;;;;;;;3.58;0.45;;;25.80;56.90;;;;;;5034009;28;20037;-66
2022/07/15 13:04:57;;;;;;;2.75;0.68;;;25.70;58.40;;;;;;5049872;28;20033;-66